Time;durP1;ratioP1;P1;durP2;ratioP2;P2;SDS_P1;SDS_P2;PMS_P1;PMS_P2;Temp;Humidity;BMP_temperature;BMP_pressure;BME280_temperature;BME280_humidity;BME280_pressure;Samples;Min_cycle;Max_cycle;Signal;HPM_P1;HPM_P2
2023/04/07 00:00:28;;;;;;;;;0.80;0.80;;;;;12.23;56.29;101079.19;4993107;28;46536;-61
2023/04/07 00:02:53;;;;;;;;;4.00;2.75;;;;;12.16;56.32;101069.03;4993889;28;45475;-62
2023/04/07 00:05:19;;;;;;;;;3.50;2.25;;;;;12.20;56.19;101080.44;4993487;28;46154;-61
2023/04/07 00:07:45;;;;;;;;;1.00;0.75;;;;;12.20;56.51;101091.47;4992048;28;45567;-60
2023/04/07 00:10:10;;;;;;;;;4.00;2.00;;;;;11.98;56.39;101063.31;4999854;28;47584;-60
2023/04/07 00:12:36;;;;;;;;;1.00;1.00;;;;;12.20;56.08;101085.94;5014152;28;45355;-60
2023/04/07 00:15:02;;;;;;;;;1.00;1.00;;;;;12.10;56.52;101066.31;5002443;28;45756;-61
2023/04/07 00:17:27;;;;;;;;;4.00;2.50;;;;;12.13;56.33;101094.25;5009541;28;45437;-60
2023/04/07 00:19:53;;;;;;;;;4.50;2.75;;;;;12.09;57.05;101090.22;5009353;28;47463;-62
2023/04/07 00:22:18;;;;;;;;;3.50;1.50;;;;;12.09;56.85;101086.59;4993961;28;45374;-62
2023/04/07 00:24:43;;;;;;;;;4.00;2.50;;;;;12.07;57.00;101084.09;4994547;28;45250;-61
2023/04/07 00:27:09;;;;;;;;;1.00;1.00;;;;;12.04;57.25;101082.59;4994152;28;45362;-61
2023/04/07 00:29:34;;;;;;;;;1.75;1.00;;;;;11.97;56.89;101067.13;5009154;28;48447;-62
2023/04/07 00:32:00;;;;;;;;;2.00;1.00;;;;;11.86;57.57;101063.13;4980674;28;46163;-62
2023/04/07 00:34:25;;;;;;;;;2.50;1.75;;;;;11.95;57.45;101083.81;4989139;28;45469;-61
2023/04/07 00:36:51;;;;;;;;;6.00;2.00;;;;;11.66;57.21;101040.09;4993052;28;45400;-60
2023/04/07 00:39:17;;;;;;;;;2.00;2.00;;;;;11.85;57.43;101066.94;4993153;28;46465;-61
2023/04/07 00:41:44;;;;;;;;;1.40;1.20;;;;;11.86;57.37;101063.97;4994330;28;45420;-59
2023/04/07 00:44:09;;;;;;;;;3.80;2.00;;;;;11.89;57.56;101070.94;4992883;28;45439;-61
2023/04/07 00:46:34;;;;;;;;;3.50;2.50;;;;;11.88;57.96;101064.59;4994404;28;45328;-61
2023/04/07 00:49:00;;;;;;;;;2.75;1.50;;;;;11.80;57.46;101056.56;4976428;28;45870;-60
2023/04/07 00:51:25;;;;;;;;;1.50;1.00;;;;;11.85;58.17;101058.69;4992656;28;45423;-60
2023/04/07 00:53:51;;;;;;;;;4.25;2.50;;;;;11.90;57.67;101056.97;4994174;28;45401;-62
2023/04/07 00:56:16;;;;;;;;;2.00;2.00;;;;;11.85;57.64;101045.75;4994458;28;45389;-61
2023/04/07 00:58:42;;;;;;;;;3.75;2.00;;;;;11.85;57.51;101059.50;4993647;28;46011;-62
2023/04/07 01:01:12;;;;;;;;;2.25;1.00;;;;;11.88;57.67;101058.25;4994478;28;45410;-61
2023/04/07 01:03:51;;;;;;;;;4.20;2.60;;;;;11.84;57.63;101051.50;4992524;28;45378;-61
2023/04/07 01:06:17;;;;;;;;;2.60;1.60;;;;;11.82;57.75;101048.94;4980254;28;45451;-61
2023/04/07 01:08:48;;;;;;;;;2.75;2.00;;;;;11.65;57.67;101032.03;4995813;28;47597;-61
2023/04/07 01:11:24;;;;;;;;;1.00;1.00;;;;;11.90;57.71;101072.66;5008631;28;45460;-62
2023/04/07 01:13:50;;;;;;;;;3.20;2.00;;;;;11.92;57.42;101062.25;5015764;28;46012;-61
2023/04/07 01:16:42;;;;;;;;;3.60;1.00;;;;;11.87;57.85;101062.91;5017352;28;45622;-61
2023/04/07 01:19:17;;;;;;;;;3.20;2.00;;;;;11.83;57.51;101056.13;5005119;28;47373;-61
2023/04/07 01:21:43;;;;;;;;;3.00;2.00;;;;;11.76;57.84;101044.28;4999278;28;45400;-62
2023/04/07 01:24:28;;;;;;;;;3.00;1.20;;;;;11.84;57.99;101060.56;5017036;28;45465;-62
2023/04/07 01:26:58;;;;;;;;;3.20;1.00;;;;;11.83;57.94;101058.03;5017176;28;46160;-62
2023/04/07 01:29:36;;;;;;;;;1.60;1.60;;;;;11.78;57.89;101054.03;5015549;28;47491;-61
2023/04/07 01:32:03;;;;;;;;;1.60;1.00;;;;;11.71;57.50;101042.19;5015581;28;45432;-61
2023/04/07 01:34:29;;;;;;;;;2.00;2.00;;;;;11.77;57.83;101051.47;5016792;28;45462;-61
2023/04/07 01:36:55;;;;;;;;;1.80;1.80;;;;;11.74;58.39;101062.91;5015841;28;45425;-61
2023/04/07 01:39:21;;;;;;;;;3.50;2.50;;;;;11.78;58.54;101069.66;4998590;28;45558;-61
2023/04/07 01:41:46;;;;;;;;;3.60;2.00;;;;;11.74;58.37;101072.00;5016308;28;45871;-61
2023/04/07 01:44:12;;;;;;;;;2.50;2.50;;;;;11.72;58.42;101071.38;5015500;28;45478;-60
2023/04/07 01:46:37;;;;;;;;;3.00;1.50;;;;;11.70;58.43;101070.75;5017340;28;45577;-60
2023/04/07 01:49:03;;;;;;;;;2.00;1.00;;;;;11.57;58.46;101057.81;5017339;28;45424;-60
2023/04/07 01:51:29;;;;;;;;;3.25;1.75;;;;;11.35;58.77;101041.53;5017976;28;45317;-60
2023/04/07 01:53:55;;;;;;;;;1.60;1.00;;;;;11.44;59.01;101063.31;5017474;28;45305;-62
2023/04/07 01:56:20;;;;;;;;;2.00;2.00;;;;;11.51;59.34;101061.41;5016798;28;45342;-60
2023/04/07 01:58:46;;;;;;;;;2.00;2.00;;;;;11.56;58.77;101066.28;4998781;28;45710;-61
2023/04/07 02:01:12;;;;;;;;;3.75;2.75;;;;;11.58;59.16;101062.25;5003017;28;46140;-61
2023/04/07 02:03:55;;;;;;;;;1.80;1.00;;;;;11.62;58.96;101065.44;4990158;28;45432;-61
2023/04/07 02:06:23;;;;;;;;;1.80;1.00;;;;;11.61;59.18;101072.84;5015346;28;45363;-61
2023/04/07 02:08:53;;;;;;;;;2.00;1.60;;;;;11.60;59.61;101070.31;4998030;28;46239;-60
2023/04/07 02:11:20;;;;;;;;;4.40;3.00;;;;;11.34;59.61;101025.25;4986801;28;45280;-60
2023/04/07 02:13:46;;;;;;;;;4.00;3.00;;;;;11.52;59.55;101065.84;4994431;28;45478;-60
2023/04/07 02:16:11;;;;;;;;;3.50;2.00;;;;;10.82;59.74;100969.00;4977921;28;45277;-60
2023/04/07 02:18:37;;;;;;;;;4.00;2.25;;;;;10.84;59.68;100985.25;4994543;28;46434;-61
2023/04/07 02:21:02;;;;;;;;;2.50;1.00;;;;;11.46;59.18;101074.94;4978838;28;45483;-61
2023/04/07 02:23:27;;;;;;;;;10.25;3.00;;;;;11.23;59.46;101032.22;4978460;28;45405;-61
2023/04/07 02:25:56;;;;;;;;;2.00;1.75;;;;;11.55;59.47;101079.19;4978986;28;45503;-61
2023/04/07 02:28:22;;;;;;;;;2.40;2.00;;;;;11.55;58.96;101067.34;4995759;28;45920;-61
2023/04/07 02:30:47;;;;;;;;;3.50;2.00;;;;;11.56;59.64;101082.78;4994800;28;45821;-61
2023/04/07 02:33:13;;;;;;;;;3.00;1.00;;;;;11.44;59.07;101044.06;4995978;28;45350;-61
2023/04/07 02:35:39;;;;;;;;;2.25;1.50;;;;;11.39;59.54;101039.22;4996983;28;45348;-61
2023/04/07 02:38:04;;;;;;;;;4.50;2.00;;;;;11.58;59.43;101080.69;4995777;28;45906;-61
2023/04/07 02:40:30;;;;;;;;;1.75;1.75;;;;;11.55;60.12;101064.59;4994193;28;45537;-61
2023/04/07 02:42:55;;;;;;;;;3.00;2.00;;;;;11.57;59.83;101063.31;4995775;28;45296;-62
2023/04/07 02:45:21;;;;;;;;;3.50;2.00;;;;;11.43;59.19;101029.50;4996350;28;45579;-62
2023/04/07 02:47:47;;;;;;;;;4.00;2.00;;;;;11.64;59.37;101066.91;4994367;28;46664;-61
2023/04/07 02:50:12;;;;;;;;;3.00;3.00;;;;;11.63;59.84;101073.47;4995901;28;45334;-61
2023/04/07 02:52:38;;;;;;;;;7.25;3.00;;;;;11.63;59.63;101067.16;4995797;28;45365;-61
2023/04/07 02:55:03;;;;;;;;;3.00;3.00;;;;;11.55;59.66;101067.34;4996200;28;45238;-61
2023/04/07 02:57:29;;;;;;;;;2.25;2.25;;;;;11.51;59.71;101065.03;4995515;28;47703;-61
2023/04/07 02:59:56;;;;;;;;;4.00;3.00;;;;;11.44;59.92;101046.81;4994245;28;45397;-62
2023/04/07 03:02:22;;;;;;;;;1.40;1.40;;;;;11.47;59.68;101066.50;4995554;28;45416;-61
2023/04/07 03:04:50;;;;;;;;;2.00;1.75;;;;;11.35;60.07;101059.91;4995844;28;45434;-61
2023/04/07 03:07:15;;;;;;;;;3.00;3.00;;;;;11.28;60.22;101051.69;4994960;28;46275;-61
2023/04/07 03:09:41;;;;;;;;;3.25;2.00;;;;;11.36;60.11;101070.72;4995614;28;45342;-61
2023/04/07 03:12:06;;;;;;;;;3.25;2.25;;;;;11.39;60.16;101069.44;5013052;28;45222;-60
2023/04/07 03:14:31;;;;;;;;;5.50;3.75;;;;;11.30;60.21;101062.47;5015559;28;45841;-61
2023/04/07 03:16:57;;;;;;;;;3.00;3.00;;;;;11.27;60.69;101068.38;5013420;28;46213;-62
2023/04/07 03:19:23;;;;;;;;;5.50;4.25;;;;;11.20;60.48;101065.63;5015015;28;45347;-60
2023/04/07 03:21:48;;;;;;;;;3.50;2.00;;;;;11.21;61.26;101062.66;5015437;28;45357;-60
2023/04/07 03:24:13;;;;;;;;;4.25;2.00;;;;;11.15;61.01;101060.72;5015041;28;45579;-60
2023/04/07 03:26:39;;;;;;;;;4.00;2.00;;;;;11.14;61.91;101069.19;5014781;28;45636;-60
2023/04/07 03:29:05;;;;;;;;;6.50;4.00;;;;;10.98;62.07;101047.41;5029537;28;45975;-61
2023/04/07 03:31:30;;;;;;;;;4.75;3.00;;;;;11.03;61.89;101057.75;5014743;28;45490;-61
2023/04/07 03:33:55;;;;;;;;;3.50;3.50;;;;;11.04;61.55;101053.13;5014576;28;45789;-61
2023/04/07 03:36:21;;;;;;;;;2.75;2.75;;;;;11.03;62.02;101070.63;5014732;28;45859;-61
2023/04/07 03:38:47;;;;;;;;;2.25;2.00;;;;;10.97;62.07;101070.44;4996425;28;45557;-60
2023/04/07 03:41:12;;;;;;;;;1.50;1.00;;;;;10.74;62.31;101042.44;5014476;28;45370;-61
2023/04/07 03:43:38;;;;;;;;;6.25;3.00;;;;;10.77;62.06;101040.13;5014675;28;45458;-61
2023/04/07 03:46:03;;;;;;;;;2.00;2.00;;;;;10.91;61.85;101063.00;5014785;28;45442;-60
2023/04/07 03:48:29;;;;;;;;;2.00;2.00;;;;;10.97;61.60;101067.69;5014150;28;45313;-62
2023/04/07 03:50:55;;;;;;;;;1.50;1.50;;;;;10.96;61.73;101074.22;5014656;28;45197;-60
2023/04/07 03:53:20;;;;;;;;;2.75;2.75;;;;;10.94;62.07;101079.06;5014467;28;45251;-60
2023/04/07 03:55:46;;;;;;;;;4.00;3.00;;;;;10.94;62.07;101062.59;5014051;28;46297;-61
2023/04/07 03:58:11;;;;;;;;;2.75;1.50;;;;;10.95;61.62;101066.19;5014480;28;45337;-61
2023/04/07 04:00:37;;;;;;;;;4.50;3.25;;;;;10.98;61.45;101063.88;5012813;28;45356;-61
2023/04/07 04:03:02;;;;;;;;;4.25;2.00;;;;;11.00;62.17;101073.81;4977857;28;45812;-61
2023/04/07 04:05:28;;;;;;;;;2.25;2.25;;;;;10.95;61.65;101077.16;5013982;28;45782;-61
2023/04/07 04:07:53;;;;;;;;;1.50;1.25;;;;;10.84;62.96;101071.22;5013706;28;45242;-59
2023/04/07 04:10:19;;;;;;;;;3.00;3.00;;;;;10.83;62.07;101069.53;5011252;28;45344;-61
2023/04/07 04:12:46;;;;;;;;;3.00;2.50;;;;;10.68;62.65;101036.72;4994643;28;45369;-62
2023/04/07 04:15:11;;;;;;;;;4.80;4.40;;;;;10.87;62.60;101075.44;4994594;28;46478;-61
2023/04/07 04:17:37;;;;;;;;;3.00;3.00;;;;;10.83;62.17;101072.28;4993807;28;45798;-61
2023/04/07 04:20:02;;;;;;;;;3.00;3.00;;;;;10.81;62.21;101076.28;4994676;28;45501;-62
2023/04/07 04:22:28;;;;;;;;;5.50;2.25;;;;;10.80;62.39;101088.31;4994331;28;45671;-62
2023/04/07 04:24:53;;;;;;;;;8.25;4.00;;;;;10.52;62.24;101042.59;4994140;28;46623;-60
2023/04/07 04:27:19;;;;;;;;;3.00;2.00;;;;;10.78;62.58;101087.69;4992900;28;45377;-61
2023/04/07 04:29:45;;;;;;;;;3.50;2.50;;;;;10.75;62.82;101094.41;4994145;28;45578;-61
2023/04/07 04:32:11;;;;;;;;;4.20;2.40;;;;;10.75;62.63;101093.56;4994245;28;45575;-61
2023/04/07 04:34:37;;;;;;;;;4.75;3.75;;;;;10.74;63.01;101089.13;4989545;28;45571;-60
2023/04/07 04:37:02;;;;;;;;;3.50;3.00;;;;;10.73;63.04;101099.25;4993778;28;45884;-61
2023/04/07 04:39:28;;;;;;;;;4.00;3.00;;;;;10.69;62.53;101093.31;4994650;28;45394;-61
2023/04/07 04:41:53;;;;;;;;;5.25;2.00;;;;;10.66;63.35;101107.47;4998165;28;45350;-61
2023/04/07 04:44:18;;;;;;;;;2.50;2.50;;;;;10.32;63.09;101057.03;5012592;28;46277;-62
2023/04/07 04:46:44;;;;;;;;;6.25;4.00;;;;;10.58;63.17;101102.16;4996949;28;45480;-61
2023/04/07 04:49:10;;;;;;;;;3.75;2.25;;;;;10.56;62.50;101101.50;4998213;28;45358;-61
2023/04/07 04:51:35;;;;;;;;;2.50;2.50;;;;;10.59;63.52;101103.84;5013883;28;45414;-61
2023/04/07 04:54:02;;;;;;;;;7.25;4.50;;;;;10.63;62.84;101107.03;4997723;28;45572;-61
2023/04/07 04:56:28;;;;;;;;;4.00;4.00;;;;;10.52;62.83;101105.72;4997912;28;45286;-61
2023/04/07 04:58:54;;;;;;;;;2.50;2.25;;;;;10.54;62.99;101109.09;4996244;28;45378;-60
2023/04/07 05:01:19;;;;;;;;;6.75;4.75;;;;;10.30;63.48;101070.94;4998098;28;45554;-60
2023/04/07 05:03:46;;;;;;;;;6.60;4.40;;;;;10.43;63.67;101083.06;4995451;28;45335;-60
2023/04/07 05:06:12;;;;;;;;;4.50;4.50;;;;;10.59;63.46;101103.84;4994028;28;45235;-60
2023/04/07 05:08:37;;;;;;;;;6.75;3.25;;;;;10.32;63.42;101076.22;5013140;28;45325;-60
2023/04/07 05:11:03;;;;;;;;;5.25;3.00;;;;;10.53;63.07;101112.88;4993670;28;45648;-62
2023/04/07 05:13:29;;;;;;;;;5.00;5.00;;;;;10.26;63.09;101083.34;4996741;28;46285;-62
2023/04/07 05:15:55;;;;;;;;;5.40;2.20;;;;;10.41;63.93;101113.41;4996314;28;45442;-61
2023/04/07 05:18:21;;;;;;;;;10.00;5.00;;;;;10.41;63.97;101120.81;4995694;28;45415;-61
2023/04/07 05:20:47;;;;;;;;;8.50;5.25;;;;;10.36;63.47;101112.34;4995628;28;45629;-60
2023/04/07 05:23:13;;;;;;;;;7.20;5.40;;;;;10.11;63.75;101077.13;4996810;28;46124;-61
2023/04/07 05:25:38;;;;;;;;;4.50;3.50;;;;;10.39;63.93;101115.53;4996958;28;45318;-60
2023/04/07 05:28:04;;;;;;;;;7.25;4.25;;;;;10.38;63.93;101115.72;4996926;28;45404;-62
2023/04/07 05:30:29;;;;;;;;;4.00;4.00;;;;;10.37;63.38;101106.66;4997097;28;45401;-64
2023/04/07 05:32:55;;;;;;;;;8.00;5.25;;;;;10.38;63.77;101105.59;4996448;28;45368;-61
2023/04/07 05:35:20;;;;;;;;;7.00;4.00;;;;;10.43;63.94;101116.84;4979273;28;45483;-63
2023/04/07 05:37:46;;;;;;;;;7.25;7.25;;;;;10.47;63.80;101111.81;4996896;28;45258;-61
2023/04/07 05:40:11;;;;;;;;;9.50;6.25;;;;;10.51;62.89;101120.50;4996973;28;45672;-61
2023/04/07 05:42:37;;;;;;;;;6.50;5.00;;;;;10.52;62.62;101120.25;4995897;28;46081;-59
2023/04/07 05:45:03;;;;;;;;;3.25;3.25;;;;;10.55;63.03;101125.38;4996814;28;45416;-62
2023/04/07 05:47:29;;;;;;;;;4.00;4.00;;;;;10.47;63.52;101120.03;4996879;28;45876;-60
2023/04/07 05:49:54;;;;;;;;;4.75;4.25;;;;;10.32;63.32;101098.19;4995488;28;45426;-62
2023/04/07 05:52:20;;;;;;;;;5.00;3.25;;;;;10.38;63.17;101116.56;4995548;28;46137;-60
2023/04/07 05:54:45;;;;;;;;;7.25;5.25;;;;;10.40;63.68;101119.97;4994816;28;45291;-60
2023/04/07 05:57:11;;;;;;;;;4.00;4.00;;;;;10.39;63.96;101128.38;4996472;28;45523;-61
2023/04/07 05:59:36;;;;;;;;;7.00;5.25;;;;;10.33;64.03;101135.53;4995478;28;45510;-61
2023/04/07 06:02:02;;;;;;;;;4.00;4.00;;;;;10.27;63.27;101125.38;4996690;28;45567;-60
2023/04/07 06:04:28;;;;;;;;;4.40;4.40;;;;;10.11;63.25;101096.34;4994911;28;45499;-61
2023/04/07 06:06:54;;;;;;;;;7.25;5.25;;;;;10.12;63.52;101090.66;4996759;28;45430;-62
2023/04/07 06:09:23;;;;;;;;;8.75;6.00;;;;;10.43;63.09;101135.22;4995861;28;45563;-61
2023/04/07 06:11:48;;;;;;;;;6.80;4.00;;;;;10.41;63.65;101131.78;5006911;28;48611;-59
2023/04/07 06:14:14;;;;;;;;;8.00;8.00;;;;;10.47;62.87;101139.25;5016320;28;45274;-61
2023/04/07 06:16:39;;;;;;;;;3.00;3.00;;;;;10.45;63.58;101138.59;5002933;28;45535;-60
2023/04/07 06:19:06;;;;;;;;;12.00;6.00;;;;;10.42;63.21;101145.31;4976249;28;45432;-60
2023/04/07 06:21:31;;;;;;;;;6.80;3.80;;;;;10.42;63.58;101137.09;4992000;28;45489;-62
2023/04/07 06:23:57;;;;;;;;;7.75;7.75;;;;;10.42;63.09;101139.84;4994619;28;45456;-60
2023/04/07 06:26:22;;;;;;;;;8.00;8.00;;;;;10.40;63.03;101147.41;4994899;28;45456;-61
2023/04/07 06:28:48;;;;;;;;;6.00;4.00;;;;;10.37;63.28;101150.56;4993466;28;45552;-62
2023/04/07 06:31:13;;;;;;;;;4.75;4.75;;;;;10.38;63.42;101148.66;4992078;28;47590;-61
2023/04/07 06:33:39;;;;;;;;;9.25;7.75;;;;;10.45;63.29;101160.53;4993346;28;45409;-62
2023/04/07 06:36:05;;;;;;;;;11.50;8.00;;;;;10.42;63.17;101160.94;4994494;28;45139;-61
2023/04/07 06:38:30;;;;;;;;;11.00;8.00;;;;;10.43;63.40;101165.41;4995928;28;45181;-62
2023/04/07 06:40:56;;;;;;;;;9.00;5.50;;;;;10.25;62.67;101147.50;4994999;28;46169;-61
2023/04/07 06:43:21;;;;;;;;;11.00;7.50;;;;;10.36;63.42;101170.78;4995539;28;45637;-60
2023/04/07 06:45:47;;;;;;;;;9.00;8.50;;;;;10.42;62.85;101174.66;4995587;28;45592;-61
2023/04/07 06:48:12;;;;;;;;;13.25;9.00;;;;;10.44;62.77;101175.31;4995664;28;45294;-61
2023/04/07 06:50:37;;;;;;;;;11.25;9.00;;;;;10.29;62.86;101157.03;4995669;28;45337;-60
2023/04/07 06:53:03;;;;;;;;;8.50;7.75;;;;;10.55;62.73;101187.63;4995116;28;45405;-62
2023/04/07 06:55:29;;;;;;;;;15.25;8.50;;;;;10.54;62.47;101191.44;4994002;28;45289;-60
2023/04/07 06:57:54;;;;;;;;;11.50;8.00;;;;;10.55;62.70;101193.13;4990117;28;45854;-61
2023/04/07 07:00:21;;;;;;;;;10.50;8.00;;;;;10.40;62.14;101168.50;4997411;28;48056;-62
2023/04/07 07:02:47;;;;;;;;;16.20;9.60;;;;;10.55;62.36;101199.47;4992833;28;45393;-61
2023/04/07 07:05:13;;;;;;;;;9.80;8.60;;;;;10.51;62.89;101195.41;5002743;28;45498;-62
2023/04/07 07:07:38;;;;;;;;;9.00;7.25;;;;;10.50;62.34;101188.25;5014996;28;45500;-60
2023/04/07 07:10:05;;;;;;;;;7.75;7.75;;;;;10.51;62.88;101192.69;5014857;28;46352;-61
2023/04/07 07:12:32;;;;;;;;;10.80;9.60;;;;;10.57;62.56;101196.53;5013093;28;45413;-61
2023/04/07 07:14:57;;;;;;;;;14.20;9.80;;;;;10.61;62.29;101200.56;5014849;28;45358;-60
2023/04/07 07:17:23;;;;;;;;;14.50;13.25;;;;;10.39;62.29;101156.69;5009633;28;45620;-61
2023/04/07 07:19:48;;;;;;;;;12.50;11.25;;;;;10.56;61.79;101192.94;4994790;28;47035;-63
2023/04/07 07:22:14;;;;;;;;;11.00;10.50;;;;;10.63;61.86;101209.47;4994831;28;45322;-61
2023/04/07 07:24:40;;;;;;;;;12.60;10.80;;;;;10.61;62.07;101214.28;4993449;28;45437;-62
2023/04/07 07:27:05;;;;;;;;;13.25;12.50;;;;;10.64;61.59;101213.91;4994944;28;45346;-61
2023/04/07 07:29:31;;;;;;;;;20.25;15.00;;;;;10.65;62.19;101209.22;4994395;28;46153;-61
2023/04/07 07:31:56;;;;;;;;;8.00;5.00;;;;;10.59;61.75;101205.41;4976586;28;45323;-60
2023/04/07 07:34:21;;;;;;;;;16.25;13.00;;;;;10.67;61.65;101215.38;4993382;28;45449;-60
2023/04/07 07:36:47;;;;;;;;;14.25;11.00;;;;;10.62;61.45;101207.72;4994649;28;45365;-62
2023/04/07 07:39:13;;;;;;;;;20.00;15.00;;;;;10.47;62.21;101185.91;4994393;28;46066;-63
2023/04/07 07:41:39;;;;;;;;;13.50;13.50;;;;;10.69;61.84;101213.28;4964511;28;46073;-61
2023/04/07 07:44:04;;;;;;;;;29.50;20.25;;;;;10.67;60.33;101210.72;4994155;28;45870;-61
2023/04/07 07:46:30;;;;;;;;;14.75;10.25;;;;;10.70;60.89;101217.72;5010366;28;45700;-60
2023/04/07 07:48:55;;;;;;;;;16.75;13.00;;;;;10.42;61.37;101181.00;4994267;28;45376;-61
2023/04/07 07:51:21;;;;;;;;;16.50;13.25;;;;;10.63;61.22;101203.97;4995214;28;45239;-64
2023/04/07 07:53:47;;;;;;;;;14.00;9.50;;;;;10.76;61.51;101222.41;4996217;28;45298;-59
2023/04/07 07:56:12;;;;;;;;;16.75;14.75;;;;;10.67;60.69;101221.72;5004182;28;45507;-62
2023/04/07 07:58:37;;;;;;;;;16.00;10.50;;;;;10.64;61.64;101219.38;4994361;28;45547;-61
2023/04/07 08:01:03;;;;;;;;;13.75;10.25;;;;;10.66;60.96;101225.50;4992590;28;45385;-60
2023/04/07 08:03:28;;;;;;;;;15.00;13.00;;;;;10.66;61.37;101221.91;4993819;28;45253;-60
2023/04/07 08:05:54;;;;;;;;;14.25;10.00;;;;;10.75;61.13;101225.34;4994396;28;45285;-60
2023/04/07 08:08:20;;;;;;;;;17.25;14.00;;;;;10.84;61.18;101224.16;5009418;28;48381;-61
2023/04/07 08:10:45;;;;;;;;;15.25;10.00;;;;;10.67;60.03;101196.19;4985829;28;45992;-61
2023/04/07 08:13:11;;;;;;;;;14.00;13.00;;;;;10.97;60.38;101237.97;4991541;28;45480;-61
2023/04/07 08:15:39;;;;;;;;;19.50;12.50;;;;;10.79;60.02;101211.00;4989773;28;45758;-61
2023/04/07 08:18:05;;;;;;;;;17.80;15.00;;;;;10.98;59.54;101236.91;4994999;28;46089;-61
2023/04/07 08:20:31;;;;;;;;;16.60;15.60;;;;;11.03;60.23;101238.19;5011332;28;45394;-60
2023/04/07 08:22:56;;;;;;;;;14.75;11.25;;;;;10.93;59.71;101225.69;5010293;28;45360;-62
2023/04/07 08:25:22;;;;;;;;;13.25;11.00;;;;;11.09;59.79;101245.59;5011144;28;45423;-59
2023/04/07 08:27:47;;;;;;;;;16.50;14.25;;;;;11.02;60.10;101231.00;4997811;28;45749;-61
2023/04/07 08:30:13;;;;;;;;;13.75;13.75;;;;;11.18;59.72;101246.28;4992321;28;45709;-61
2023/04/07 08:32:44;;;;;;;;;13.25;11.50;;;;;11.20;59.18;101238.72;4991924;28;45365;-60
2023/04/07 08:35:10;;;;;;;;;16.60;14.80;;;;;11.25;59.28;101242.53;4992258;28;45559;-59
2023/04/07 08:37:37;;;;;;;;;14.25;12.50;;;;;11.32;59.24;101242.56;4990847;28;45692;-60
2023/04/07 08:40:02;;;;;;;;;15.60;14.60;;;;;11.37;58.68;101237.28;4990800;28;45333;-62
2023/04/07 08:42:30;;;;;;;;;14.50;11.75;;;;;11.42;58.90;101244.91;4992402;28;45638;-64
2023/04/07 08:45:05;;;;;;;;;14.80;13.00;;;;;11.40;58.62;101227.78;4985630;28;49027;-61
2023/04/07 08:47:32;;;;;;;;;12.80;12.60;;;;;11.59;58.02;101241.81;5008984;28;47403;-60
2023/04/07 08:50:03;;;;;;;;;11.00;11.00;;;;;11.64;58.10;101244.81;4990878;28;45495;-60
2023/04/07 08:52:34;;;;;;;;;13.20;13.20;;;;;11.42;58.19;101206.44;4984982;28;46439;-60
2023/04/07 08:55:03;;;;;;;;;16.80;14.40;;;;;11.77;57.78;101250.34;4978739;28;45641;-61
2023/04/07 08:57:31;;;;;;;;;21.00;16.40;;;;;11.61;58.04;101210.31;4983115;28;45875;-60
2023/04/07 09:00:03;;;;;;;;;17.80;12.80;;;;;11.76;57.26;101231.28;4971795;28;45779;-62
2023/04/07 09:02:29;;;;;;;;;16.80;14.00;;;;;11.93;57.45;101248.25;4956211;28;45467;-60
2023/04/07 09:04:56;;;;;;;;;16.20;11.80;;;;;12.09;57.35;101240.69;4972336;28;45635;-61
2023/04/07 09:07:21;;;;;;;;;12.20;9.00;;;;;12.09;56.97;101251.69;4972161;28;46687;-60
2023/04/07 09:09:47;;;;;;;;;16.25;13.50;;;;;12.19;56.85;101252.13;4971209;28;45445;-59
2023/04/07 09:12:12;;;;;;;;;14.50;13.00;;;;;12.24;56.42;101244.09;4972453;28;45783;-61
2023/04/07 09:14:38;;;;;;;;;11.25;11.00;;;;;12.19;56.37;101225.47;4972550;28;45696;-61
2023/04/07 09:17:04;;;;;;;;;14.75;11.75;;;;;12.48;56.06;101258.25;4970975;28;45713;-65
2023/04/07 09:19:29;;;;;;;;;15.25;11.75;;;;;12.54;56.12;101249.16;4954010;28;45465;-61
2023/04/07 09:21:55;;;;;;;;;14.75;12.00;;;;;12.47;55.80;101226.28;4972097;28;45442;-61
2023/04/07 09:24:22;;;;;;;;;14.00;12.00;;;;;12.63;55.47;101251.72;4969640;28;46183;-60
2023/04/07 09:26:47;;;;;;;;;17.00;13.60;;;;;12.71;55.02;101266.09;4973276;28;45933;-60
2023/04/07 09:29:18;;;;;;;;;15.75;10.50;;;;;12.77;54.59;101261.66;4953575;28;45646;-61
2023/04/07 09:31:49;;;;;;;;;10.60;10.60;;;;;12.23;54.11;101170.84;4971292;28;45443;-61
2023/04/07 09:34:26;;;;;;;;;13.00;9.60;;;;;12.84;54.56;101250.59;4982706;28;45727;-61
2023/04/07 09:36:52;;;;;;;;;19.60;13.00;;;;;13.06;54.27;101269.63;4975143;28;45942;-60
2023/04/07 09:39:21;;;;;;;;;9.80;9.60;;;;;13.11;53.71;101265.19;4974713;28;45461;-58
2023/04/07 09:41:47;;;;;;;;;11.00;10.20;;;;;13.25;52.76;101263.22;4974795;28;45474;-61
2023/04/07 09:44:19;;;;;;;;;11.00;8.50;;;;;13.36;52.51;101261.72;4958420;28;45379;-60
2023/04/07 09:46:58;;;;;;;;;11.00;9.80;;;;;13.50;51.72;101264.44;4967509;28;45792;-61
2023/04/07 09:49:24;;;;;;;;;12.00;9.80;;;;;13.49;51.20;101243.44;4984902;28;45568;-60
2023/04/07 09:51:58;;;;;;;;;9.20;8.00;;;;;13.53;50.92;101252.97;4989719;28;45496;-61
2023/04/07 09:54:37;;;;;;;;;9.60;7.80;;;;;13.55;50.06;101256.34;4974947;28;45683;-61
2023/04/07 09:57:06;;;;;;;;;7.40;7.40;;;;;13.50;50.45;101258.94;4994164;28;46431;-61
2023/04/07 09:59:33;;;;;;;;;10.40;10.00;;;;;13.14;50.47;101201.34;4993103;28;45422;-60
2023/04/07 10:01:58;;;;;;;;;10.40;8.00;;;;;13.54;50.13;101266.53;4975881;28;45791;-61
2023/04/07 10:04:24;;;;;;;;;7.00;6.80;;;;;13.70;49.84;101256.06;4973586;28;45715;-62
2023/04/07 10:06:52;;;;;;;;;11.75;9.25;;;;;13.79;49.48;101256.66;4974774;28;46599;-61
2023/04/07 10:09:17;;;;;;;;;9.00;2.20;;;;;13.74;49.38;101245.44;4960712;28;45458;-61
2023/04/07 10:11:43;;;;;;;;;9.00;9.00;;;;;13.75;48.16;101258.16;4958973;28;45826;-61
2023/04/07 10:14:09;;;;;;;;;11.50;10.25;;;;;13.71;48.94;101260.50;4992847;28;45471;-62
2023/04/07 10:16:36;;;;;;;;;10.20;9.00;;;;;13.57;48.56;101257.00;4948153;28;46716;-62
2023/04/07 10:19:02;;;;;;;;;11.00;8.40;;;;;13.58;47.36;101244.03;4984877;28;45445;-60
2023/04/07 10:21:27;;;;;;;;;8.25;6.00;;;;;13.51;48.01;101219.25;4994198;28;45347;-60
2023/04/07 10:24:20;;;;;;;;;7.00;7.00;;;;;13.61;47.01;101227.06;4993138;28;45655;-60
2023/04/07 10:26:55;;;;;;;;;5.00;5.00;;;;;13.90;47.37;101247.69;4994326;28;47613;-60
2023/04/07 10:29:21;;;;;;;;;10.00;8.00;;;;;14.01;45.86;101236.97;4962011;28;46334;-61
2023/04/07 10:31:46;;;;;;;;;5.75;4.75;;;;;14.21;45.24;101264.44;4978005;28;45311;-62
2023/04/07 10:34:12;;;;;;;;;3.75;3.75;;;;;14.29;45.52;101247.59;4996331;28;45142;-61
2023/04/07 10:37:12;;;;;;;;;11.25;10.25;;;;;14.43;44.46;101258.53;4993505;28;45285;-61
2023/04/07 10:39:37;;;;;;;;;3.00;3.00;;;;;14.44;42.99;101247.28;4974862;28;45805;-61
2023/04/07 10:42:03;;;;;;;;;5.00;5.00;;;;;14.30;42.37;101220.84;4963952;28;45512;-59
2023/04/07 10:44:37;;;;;;;;;6.50;6.25;;;;;14.19;42.98;101192.91;4967696;28;45474;-63
2023/04/07 10:47:04;;;;;;;;;8.00;7.00;;;;;14.57;43.03;101239.94;4985646;28;46960;-62
2023/04/07 10:49:31;;;;;;;;;6.40;6.00;;;;;14.42;43.09;101218.19;4961335;28;45339;-55
2023/04/07 10:52:12;;;;;;;;;6.40;6.40;;;;;14.40;42.77;101243.28;4977593;28;46060;-57
2023/04/07 10:54:38;;;;;;;;;5.80;5.80;;;;;14.53;43.13;101241.47;4972792;28;45641;-59
2023/04/07 10:57:09;;;;;;;;;6.40;6.00;;;;;14.63;43.21;101239.88;4994677;28;45464;-59
2023/04/07 10:59:34;;;;;;;;;18.00;12.60;;;;;14.64;43.25;101243.50;4976366;28;45394;-58
2023/04/07 11:02:16;;;;;;;;;38.00;32.75;;;;;14.27;43.84;101177.13;4975579;28;45397;-59
2023/04/07 11:04:43;;;;;;;;;15.40;13.00;;;;;14.66;43.82;101238.56;4988313;28;45339;-61
2023/04/07 11:07:09;;;;;;;;;25.80;24.40;;;;;14.60;43.82;101239.47;4977124;28;46100;-60
2023/04/07 11:09:34;;;;;;;;;17.75;13.75;;;;;14.51;43.53;101244.44;4975858;28;45339;-59
2023/04/07 11:12:00;;;;;;;;;32.25;28.50;;;;;14.39;44.18;101229.69;4995040;28;45630;-60
2023/04/07 11:14:29;;;;;;;;;11.50;9.25;;;;;14.27;43.52;101224.06;4995164;28;45589;-61
2023/04/07 11:16:55;;;;;;;;;11.00;10.80;;;;;14.46;43.68;101234.09;4981534;28;45565;-61
2023/04/07 11:19:21;;;;;;;;;5.00;5.00;;;;;14.72;43.26;101245.09;4945855;28;45692;-61